Time;durP1;ratioP1;P1;durP2;ratioP2;P2;SDS_P1;SDS_P2;PMS_P1;PMS_P2;Temp;Humidity;BMP_temperature;BMP_pressure;BME280_temperature;BME280_humidity;BME280_pressure;Samples;Min_cycle;Max_cycle;Signal;HPM_P1;HPM_P2
2022/05/26 00:01:06;;;;;;;7.80;3.90;;;;;;;18.77;80.72;100899.31;4997282;28;20108;-79
2022/05/26 00:03:33;;;;;;;8.07;3.97;;;;;;;18.74;81.06;100890.63;4997363;28;20034;-79
2022/05/26 00:06:00;;;;;;;11.73;4.13;;;;;;;18.75;81.53;100898.63;4997352;28;20492;-79
2022/05/26 00:08:26;;;;;;;10.38;3.95;;;;;;;18.78;81.68;100881.06;4997110;28;20030;-80
2022/05/26 00:10:52;;;;;;;9.45;4.18;;;;;;;18.77;81.76;100868.50;4997165;28;20546;-80
2022/05/26 00:13:18;;;;;;;8.75;4.60;;;;;;;18.79;81.84;100850.06;4996858;28;20061;-80
2022/05/26 00:15:43;;;;;;;12.48;3.97;;;;;;;18.79;81.86;100842.75;4996973;28;20033;-80
2022/05/26 00:18:09;;;;;;;7.00;4.03;;;;;;;18.73;82.23;100851.63;4997367;28;20034;-81
2022/05/26 00:20:34;;;;;;;46.17;7.95;;;;;;;18.73;82.54;100848.91;4997238;28;20030;-80
2022/05/26 00:22:59;;;;;;;14.73;4.65;;;;;;;18.75;82.40;100844.13;4997180;28;20037;-80
2022/05/26 00:25:25;;;;;;;13.63;4.25;;;;;;;18.67;82.54;100843.28;4997071;28;20447;-80
2022/05/26 00:27:50;;;;;;;22.85;5.35;;;;;;;18.62;83.56;100841.09;4996711;28;20022;-80
2022/05/26 00:30:16;;;;;;;12.75;4.43;;;;;;;18.58;84.41;100830.69;4997018;28;20098;-80
2022/05/26 00:32:41;;;;;;;9.65;4.38;;;;;;;18.61;84.34;100833.94;4996818;28;20034;-80
2022/05/26 00:35:08;;;;;;;72.90;10.65;;;;;;;18.60;84.31;100834.94;4996911;28;20022;-81
2022/05/26 00:37:34;;;;;;;19.52;5.32;;;;;;;18.55;84.12;100828.31;4986444;28;20112;-81
2022/05/26 00:40:02;;;;;;;4.32;3.45;;;;;;;18.48;84.78;100825.38;4997303;28;20034;-81
2022/05/26 00:42:27;;;;;;;7.22;3.67;;;;;;;18.50;85.17;100823.34;4997270;28;20080;-81
2022/05/26 00:44:52;;;;;;;10.15;3.58;;;;;;;18.53;85.14;100817.56;4997036;28;20027;-80
2022/05/26 00:47:23;;;;;;;7.65;4.47;;;;;;;18.53;85.34;100824.91;4997066;28;20054;-81
2022/05/26 00:49:58;;;;;;;11.88;4.00;;;;;;;18.58;85.53;100822.53;4997074;28;20079;-81
2022/05/26 00:52:49;;;;;;;7.07;3.67;;;;;;;18.65;85.19;100827.13;4985224;28;20033;-81
2022/05/26 00:55:21;;;;;;;4.88;3.03;;;;;;;18.59;85.29;100816.06;4997254;28;20487;-81
2022/05/26 00:57:50;;;;;;;6.53;3.20;;;;;;;18.63;85.56;100814.66;4997114;28;20437;-81
2022/05/26 01:00:20;;;;;;;8.43;3.05;;;;;;;18.61;85.70;100814.84;4996921;28;20026;-81
2022/05/26 01:03:05;;;;;;;11.82;3.92;;;;;;;18.63;86.02;100804.63;4996698;28;20030;-81
2022/05/26 01:05:41;;;;;;;4.55;3.40;;;;;;;18.57;86.23;100801.75;4996371;28;20128;-81
2022/05/26 01:08:16;;;;;;;10.90;3.95;;;;;;;18.53;86.59;100822.19;4996357;28;20022;-80
2022/05/26 01:10:41;;;;;;;5.72;3.38;;;;;;;18.48;86.69;100820.78;4996945;28;20479;-81
2022/05/26 01:13:06;;;;;;;8.43;3.58;;;;;;;18.36;86.72;100818.56;4979081;28;20033;-80
2022/05/26 01:15:37;;;;;;;10.88;3.70;;;;;;;18.30;86.92;100809.22;4996015;28;20030;-80
2022/05/26 01:18:05;;;;;;;5.88;3.50;;;;;;;18.29;87.32;100826.56;4996671;28;20043;-80
2022/05/26 01:20:46;;;;;;;13.13;4.45;;;;;;;18.27;87.58;100823.19;4996530;28;20125;-81
2022/05/26 01:23:33;;;;;;;9.07;4.10;;;;;;;18.25;87.75;100835.25;4996545;28;20038;-81
2022/05/26 01:26:04;;;;;;;8.02;3.85;;;;;;;18.24;87.94;100844.44;4996255;28;20037;-80
2022/05/26 01:29:09;;;;;;;9.43;4.05;;;;;;;18.24;88.27;100839.00;4985422;28;20026;-81
2022/05/26 01:31:47;;;;;;;11.40;3.55;;;;;;;18.32;88.23;100836.25;4984191;28;20026;-80
2022/05/26 01:34:34;;;;;;;7.78;3.75;;;;;;;18.40;87.56;100839.88;4996150;28;20542;-81
2022/05/26 01:37:17;;;;;;;9.82;3.88;;;;;;;18.38;87.36;100832.88;4978363;28;20050;-81
2022/05/26 01:40:06;;;;;;;4.72;3.65;;;;;;;18.40;87.54;100828.97;4995961;28;20033;-81
2022/05/26 01:42:44;;;;;;;6.80;3.95;;;;;;;18.36;87.88;100827.59;4979390;28;20034;-80
2022/05/26 01:45:19;;;;;;;10.00;4.35;;;;;;;18.42;87.92;100824.19;4986145;28;20062;-81
2022/05/26 01:47:44;;;;;;;10.23;3.25;;;;;;;18.51;87.56;100808.72;4995657;28;20030;-81
2022/05/26 01:50:39;;;;;;;6.85;4.03;;;;;;;18.57;87.28;100807.19;4995830;28;20038;-81
2022/05/26 01:53:14;;;;;;;15.07;5.35;;;;;;;18.57;86.91;100821.66;4978317;28;20034;-81
2022/05/26 01:55:42;;;;;;;7.57;3.65;;;;;;;18.59;86.60;100822.34;4985959;28;20487;-80
2022/05/26 01:58:35;;;;;;;16.20;6.25;;;;;;;18.57;86.69;100818.09;4977976;28;20034;-81
2022/05/26 02:01:07;;;;;;;9.30;3.97;;;;;;;18.52;86.80;100804.13;4987437;28;20042;-81
2022/05/26 02:03:36;;;;;;;12.70;3.63;;;;;;;18.60;86.30;100812.28;4994921;28;20069;-81
2022/05/26 02:06:10;;;;;;;5.57;3.35;;;;;;;18.52;85.95;100798.69;4995215;28;20031;-81
2022/05/26 02:09:09;;;;;;;13.57;4.57;;;;;;;18.60;85.56;100795.94;4995342;28;20072;-80
2022/05/26 02:11:47;;;;;;;15.68;4.65;;;;;;;18.46;85.50;100776.53;4992884;28;20046;-80
2022/05/26 02:14:17;;;;;;;11.73;4.95;;;;;;;18.58;85.43;100781.66;4995581;28;20026;-81
2022/05/26 02:16:43;;;;;;;10.23;4.32;;;;;;;18.60;85.49;100774.16;4995532;28;20034;-81
2022/05/26 02:19:14;;;;;;;12.57;5.20;;;;;;;18.53;85.67;100759.53;4977471;28;20026;-81
2022/05/26 02:21:49;;;;;;;9.50;4.47;;;;;;;18.47;85.74;100767.31;4994346;28;20030;-80
2022/05/26 02:24:40;;;;;;;9.68;4.65;;;;;;;18.47;85.88;100772.78;4994700;28;20034;-81
2022/05/26 02:27:06;;;;;;;8.98;4.38;;;;;;;18.61;85.62;100765.81;4995177;28;20812;-81
2022/05/26 02:32:24;;;;;;;12.25;4.40;;;;;;;18.46;86.15;100762.91;4995234;28;20045;-80
2022/05/26 02:34:52;;;;;;;16.80;4.72;;;;;;;18.59;85.97;100778.75;4995018;28;20045;-81
2022/05/26 02:37:20;;;;;;;16.17;5.07;;;;;;;18.54;86.00;100783.00;4994763;28;20058;-80
2022/05/26 02:39:45;;;;;;;11.52;4.53;;;;;;;18.61;85.76;100781.31;4977183;28;20038;-81
2022/05/26 02:42:11;;;;;;;14.60;4.65;;;;;;;18.65;85.75;100782.66;4994573;28;20048;-80
2022/05/26 02:44:37;;;;;;;10.60;4.30;;;;;;;18.71;85.26;100790.16;4994285;28;20034;-80
2022/05/26 02:47:30;;;;;;;10.52;4.47;;;;;;;18.67;85.08;100796.97;4994244;28;20026;-78
2022/05/26 02:50:01;;;;;;;10.32;5.03;;;;;;;18.64;85.59;100797.31;4968223;28;20108;-81
2022/05/26 02:52:35;;;;;;;12.45;4.43;;;;;;;18.73;85.54;100790.81;4994199;28;20034;-81
2022/05/26 02:55:37;;;;;;;11.13;4.97;;;;;;;18.68;85.42;100785.91;4995675;28;20034;-80
2022/05/26 02:58:48;;;;;;;10.40;4.13;;;;;;;18.77;85.44;100786.75;4998625;28;20046;-81
2022/05/26 03:01:26;;;;;;;10.30;4.72;;;;;;;18.71;85.09;100776.53;4998396;28;20042;-80
2022/05/26 03:04:22;;;;;;;12.00;4.47;;;;;;;18.75;85.39;100780.59;4987209;28;20038;-80
2022/05/26 03:06:56;;;;;;;7.60;4.72;;;;;;;18.66;85.28;100773.47;4992447;28;20049;-80
2022/05/26 03:09:23;;;;;;;6.43;4.53;;;;;;;18.77;85.22;100786.75;4993909;28;20104;-80
2022/05/26 03:11:51;;;;;;;13.45;4.88;;;;;;;18.74;85.06;100776.19;4977324;28;20467;-80
2022/05/26 03:14:19;;;;;;;9.15;4.68;;;;;;;18.76;85.39;100780.44;4977018;28;20464;-80
2022/05/26 03:16:45;;;;;;;10.15;4.68;;;;;;;18.75;85.58;100784.16;4993364;28;20030;-80
2022/05/26 03:19:11;;;;;;;14.57;5.70;;;;;;;18.87;85.24;100779.19;4993012;28;20037;-80
2022/05/26 03:21:38;;;;;;;14.38;5.43;;;;;;;18.98;84.97;100789.75;4993387;28;20034;-81
2022/05/26 03:24:04;;;;;;;15.05;5.35;;;;;;;19.01;84.59;100792.13;4976118;28;20480;-80
2022/05/26 03:26:30;;;;;;;15.27;5.57;;;;;;;19.01;84.57;100781.22;4976194;28;20034;-80
2022/05/26 03:28:55;;;;;;;13.45;5.32;;;;;;;18.96;84.78;100781.72;4976194;28;20044;-81
2022/05/26 03:31:21;;;;;;;15.07;5.32;;;;;;;18.99;84.98;100777.78;4992742;28;20037;-80
2022/05/26 03:41:59;;;;;;;11.00;5.72;;;;;;;19.07;84.74;100788.69;4974518;28;20090;-81
2022/05/26 03:44:27;;;;;;;10.13;5.75;;;;;;;18.96;85.12;100784.44;4956579;28;20030;-80
2022/05/26 03:46:53;;;;;;;14.43;6.07;;;;;;;19.03;85.35;100792.78;4974104;28;20062;-81
2022/05/26 03:49:18;;;;;;;13.55;5.95;;;;;;;18.94;85.54;100778.34;4992933;28;20018;-79
2022/05/26 03:51:44;;;;;;;12.05;6.03;;;;;;;19.06;85.66;100784.25;4993739;28;20552;-79
2022/05/26 03:54:09;;;;;;;13.23;5.50;;;;;;;18.84;86.20;100782.28;4993086;28;20030;-79
2022/05/26 03:56:35;;;;;;;11.77;6.60;;;;;;;18.88;86.25;100775.44;4993436;28;20034;-78
2022/05/26 03:59:00;;;;;;;12.93;5.93;;;;;;;19.00;86.00;100787.69;4975974;28;20112;-78
2022/05/26 04:01:27;;;;;;;21.95;12.05;;;;;;;19.06;85.98;100784.25;4981926;28;20539;-80
2022/05/26 04:03:55;;;;;;;21.45;9.10;;;;;;;18.98;86.30;100770.66;4993822;28;20030;-82
2022/05/26 04:06:21;;;;;;;19.15;6.20;;;;;;;19.10;85.92;100782.03;4994013;28;20061;-80
2022/05/26 04:08:46;;;;;;;14.27;6.97;;;;;;;19.12;86.26;100779.97;4993374;28;20122;-79
2022/05/26 04:11:12;;;;;;;19.45;8.02;;;;;;;19.12;85.81;100772.66;4993400;28;20030;-81
2022/05/26 04:13:37;;;;;;;23.45;7.05;;;;;;;19.17;85.48;100772.97;4993921;28;20022;-80
2022/05/26 04:16:03;;;;;;;29.65;8.05;;;;;;;19.24;85.35;100773.97;4993904;28;20097;-80
2022/05/26 04:18:28;;;;;;;23.13;7.70;;;;;;;19.21;85.51;100782.50;4994335;28;20088;-79
2022/05/26 04:21:03;;;;;;;15.93;6.85;;;;;;;19.27;85.40;100800.00;4993899;28;20022;-81
2022/05/26 04:23:28;;;;;;;20.63;8.07;;;;;;;19.22;85.94;100818.78;4993938;28;20022;-80
2022/05/26 04:25:54;;;;;;;15.30;7.15;;;;;;;19.31;85.41;100862.22;4994277;28;20021;-81
2022/05/26 04:28:19;;;;;;;22.73;7.25;;;;;;;19.42;84.71;100949.16;4993711;28;20392;-81
2022/05/26 04:30:45;;;;;;;29.23;8.55;;;;;;;19.36;84.62;100918.97;4992698;28;20061;-79
2022/05/26 04:33:10;;;;;;;14.18;7.30;;;;;;;19.28;84.86;100865.31;4992902;28;20476;-78
2022/05/26 04:35:36;;;;;;;21.02;8.32;;;;;;;19.39;84.75;100885.88;4993290;28;20086;-79
2022/05/26 04:38:01;;;;;;;27.48;8.23;;;;;;;19.38;84.72;100879.59;4975200;28;20042;-80
2022/05/26 04:40:27;;;;;;;21.40;8.13;;;;;;;19.47;84.47;100873.13;4993179;28;20476;-79
2022/05/26 04:42:53;;;;;;;20.70;8.02;;;;;;;19.51;83.75;100909.06;4975144;28;20125;-80
2022/05/26 04:45:19;;;;;;;12.82;7.28;;;;;;;19.65;83.51;100926.59;4995878;28;20035;-80
2022/05/26 04:47:44;;;;;;;18.88;7.15;;;;;;;19.63;82.72;100921.31;4995714;28;20053;-79
2022/05/26 04:50:11;;;;;;;23.75;7.43;;;;;;;19.74;82.80;100885.47;4995985;28;20805;-79
2022/05/26 04:52:36;;;;;;;30.90;8.82;;;;;;;19.78;81.86;100883.22;4985655;28;20030;-81
2022/05/26 04:55:02;;;;;;;35.70;10.38;;;;;;;19.81;81.83;100871.94;4995390;28;20494;-81
2022/05/26 04:57:27;;;;;;;20.38;9.02;;;;;;;19.95;81.64;100882.97;4995887;28;20022;-80
2022/05/26 04:59:54;;;;;;;21.90;10.00;;;;;;;19.95;81.21;100887.56;4995976;28;20094;-80
2022/05/26 05:02:22;;;;;;;17.08;9.25;;;;;;;20.16;80.69;100886.91;4995448;28;20034;-80
2022/05/26 05:04:48;;;;;;;16.25;7.15;;;;;;;20.26;79.70;100874.78;4995374;28;20033;-80
2022/05/26 05:07:16;;;;;;;8.48;6.65;;;;;;;20.36;78.91;100883.59;4995230;28;20101;-79
2022/05/26 05:09:41;;;;;;;13.25;7.50;;;;;;;20.33;78.87;100864.84;4995733;28;20038;-79
2022/05/26 05:12:10;;;;;;;16.02;7.15;;;;;;;20.44;78.37;100872.59;4995905;28;20508;-79
2022/05/26 05:14:44;;;;;;;22.77;8.18;;;;;;;20.55;78.12;100869.41;4995416;28;20081;-80
2022/05/26 05:17:10;;;;;;;16.42;8.27;;;;;;;20.45;77.82;100868.84;4995980;28;20647;-82
2022/05/26 05:19:36;;;;;;;17.20;8.57;;;;;;;20.30;78.55;100870.66;4996168;28;20045;-80
2022/05/26 05:22:04;;;;;;;31.02;9.52;;;;;;;20.39;78.76;100875.03;4995679;28;20026;-80
2022/05/26 05:24:41;;;;;;;18.00;9.52;;;;;;;20.37;78.50;100871.59;4995391;28;20026;-81
2022/05/26 05:27:19;;;;;;;31.52;10.63;;;;;;;20.38;78.58;100853.34;4985000;28;20026;-80
2022/05/26 05:29:47;;;;;;;12.85;7.75;;;;;;;20.22;79.09;100859.75;4995904;28;20512;-80
2022/05/26 05:32:21;;;;;;;25.85;7.90;;;;;;;20.20;79.35;100870.00;4995184;28;20504;-81
2022/05/26 05:34:55;;;;;;;18.92;8.32;;;;;;;20.06;80.32;100882.53;4978255;28;20377;-81
2022/05/26 05:37:20;;;;;;;19.50;8.82;;;;;;;20.11;80.51;100887.47;4994607;28;20050;-78
2022/05/26 05:39:46;;;;;;;13.80;7.57;;;;;;;20.24;80.27;100875.97;4994958;28;20088;-80
2022/05/26 05:42:12;;;;;;;24.38;8.90;;;;;;;20.42;79.50;100879.28;4977574;28;20057;-80
2022/05/26 05:44:38;;;;;;;14.40;7.18;;;;;;;20.25;78.98;100862.09;4994493;28;20506;-80
2022/05/26 05:47:05;;;;;;;21.13;7.85;;;;;;;20.24;78.99;100868.63;4994237;28;20045;-80
2022/05/26 05:49:32;;;;;;;29.55;9.77;;;;;;;20.40;79.60;100893.09;4995224;28;20030;-80
2022/05/26 05:52:10;;;;;;;36.53;9.82;;;;;;;20.55;78.89;100894.00;4994486;28;20019;-80
2022/05/26 05:54:36;;;;;;;22.75;9.75;;;;;;;20.57;78.41;100905.63;4977385;28;20030;-77
2022/05/26 05:57:02;;;;;;;28.67;8.63;;;;;;;20.69;78.10;100900.56;4977501;28;20049;-76
2022/05/26 05:59:28;;;;;;;45.28;11.80;;;;;;;20.59;78.22;100886.31;4977141;28;20484;-78
2022/05/26 06:01:54;;;;;;;24.67;8.75;;;;;;;20.53;78.43;100879.69;4994528;28;20207;-77
2022/05/26 06:04:19;;;;;;;30.95;8.90;;;;;;;20.75;78.03;100883.44;4994024;28;20077;-77
2022/05/26 06:06:45;;;;;;;16.23;7.63;;;;;;;20.66;78.47;100870.88;4976265;28;20026;-77
2022/05/26 06:09:20;;;;;;;26.40;7.85;;;;;;;20.58;78.92;100869.06;4993796;28;20101;-77
2022/05/26 06:11:46;;;;;;;25.55;12.98;;;;;;;20.76;77.89;100873.34;4993667;28;20026;-78
2022/05/26 06:14:12;;;;;;;20.20;7.72;;;;;;;20.67;77.84;100863.53;4993716;28;20026;-77
2022/05/26 06:16:38;;;;;;;22.90;8.48;;;;;;;20.76;77.76;100870.63;4993685;28;20033;-78
2022/05/26 06:19:05;;;;;;;16.23;6.88;;;;;;;20.62;77.55;100873.13;4993450;28;20030;-76
2022/05/26 06:21:31;;;;;;;14.95;7.60;;;;;;;20.40;78.35;100860.31;4993534;28;20033;-78
2022/05/26 06:23:57;;;;;;;14.10;10.57;;;;;;;20.27;78.81;100854.63;4993445;28;20037;-76
2022/05/26 06:26:24;;;;;;;24.63;7.95;;;;;;;20.22;79.38;100856.16;4993604;28;20451;-76
2022/05/26 06:31:34;;;;;;;21.30;7.70;;;;;;;20.42;78.82;100860.16;4993473;28;20087;-76
2022/05/26 06:39:27;;;;;;;24.23;8.93;;;;;;;20.19;80.05;100868.28;4993633;28;20080;-76
2022/05/26 06:42:09;;;;;;;18.92;9.32;;;;;;;20.14;80.06;100878.06;4992583;28;20022;-76
2022/05/26 06:44:44;;;;;;;21.58;10.30;;;;;;;20.18;80.35;100872.09;4992273;28;20023;-76
2022/05/26 06:47:13;;;;;;;23.88;9.15;;;;;;;20.46;79.98;100891.53;4993362;28;20030;-76
2022/05/26 06:49:41;;;;;;;23.42;10.00;;;;;;;20.66;78.85;100887.28;4982725;28;20459;-76
2022/05/26 06:52:07;;;;;;;18.58;10.25;;;;;;;20.65;78.35;100869.16;4993064;28;20502;-76
2022/05/26 06:54:36;;;;;;;20.90;9.98;;;;;;;20.88;78.33;100871.88;4993116;28;20034;-76
2022/05/26 06:57:04;;;;;;;14.27;8.35;;;;;;;20.95;78.17;100865.47;4993127;28;20030;-76
2022/05/26 06:59:29;;;;;;;15.13;7.40;;;;;;;20.98;78.19;100869.72;4993305;28;20048;-76
2022/05/26 07:01:55;;;;;;;15.20;8.25;;;;;;;21.08;77.23;100870.28;4992928;28;20492;-76
2022/05/26 07:04:21;;;;;;;19.70;8.38;;;;;;;21.06;76.31;100856.81;4992042;28;20034;-77
2022/05/26 07:06:52;;;;;;;14.43;8.57;;;;;;;21.24;75.66;100863.84;4991993;28;20097;-76
2022/05/26 07:09:19;;;;;;;19.38;9.20;;;;;;;21.41;75.27;100854.38;4993394;28;20053;-77
2022/05/26 07:11:45;;;;;;;15.38;9.32;;;;;;;21.47;75.03;100848.16;4992789;28;20045;-78
2022/05/26 07:14:12;;;;;;;21.08;9.07;;;;;;;21.45;74.73;100847.50;4975733;28;20100;-76
2022/05/26 07:16:38;;;;;;;22.65;9.63;;;;;;;21.56;74.56;100853.34;4965552;28;20128;-76
2022/05/26 07:19:03;;;;;;;14.68;8.77;;;;;;;21.55;74.23;100845.34;4992642;28;20543;-77
2022/05/26 07:21:29;;;;;;;13.43;8.02;;;;;;;21.73;73.85;100845.78;4992901;28;20018;-76
2022/05/26 07:23:54;;;;;;;14.43;7.65;;;;;;;21.66;74.20;100848.44;4974847;28;20129;-77
2022/05/26 07:26:20;;;;;;;15.27;6.75;;;;;;;21.75;73.84;100849.16;4992547;28;20034;-76
2022/05/26 07:28:45;;;;;;;16.50;7.68;;;;;;;21.63;73.35;100846.06;4992912;28;20109;-76
2022/05/26 07:31:12;;;;;;;21.83;8.18;;;;;;;21.70;73.90;100849.75;4992539;28;20036;-76
2022/05/26 07:33:38;;;;;;;20.98;10.93;;;;;;;21.84;73.25;100844.41;4992978;28;20026;-75
2022/05/26 07:36:04;;;;;;;20.17;9.65;;;;;;;21.91;72.92;100859.09;4993119;28;20026;-76
2022/05/26 07:41:28;;;;;;;13.15;9.10;;;;;;;22.06;72.33;100854.41;4992281;28;20042;-76
2022/05/26 07:43:57;;;;;;;17.38;8.88;;;;;;;22.23;71.95;100850.41;4992491;28;20096;-76
2022/05/26 07:46:25;;;;;;;25.20;11.27;;;;;;;22.29;71.33;100851.50;4992507;28;20049;-76
2022/05/26 07:48:51;;;;;;;23.38;11.52;;;;;;;22.45;70.79;100865.78;4992882;28;20049;-77
2022/05/26 07:51:19;;;;;;;44.08;23.85;;;;;;;22.58;69.86;100852.22;4992772;28;20092;-77
2022/05/26 07:53:46;;;;;;;25.10;12.45;;;;;;;22.73;69.60;100855.75;4992320;28;20129;-77
2022/05/26 07:56:11;;;;;;;16.98;10.52;;;;;;;22.83;69.43;100851.81;4975016;28;20096;-77
2022/05/26 07:58:37;;;;;;;30.42;9.63;;;;;;;23.01;69.03;100865.88;4992712;28;20038;-76
2022/05/26 08:01:03;;;;;;;32.15;9.10;;;;;;;23.04;67.72;100865.47;4992380;28;20480;-77
2022/05/26 08:03:29;;;;;;;24.08;9.82;;;;;;;23.13;67.72;100853.31;4992741;28;20032;-77
2022/05/26 08:05:55;;;;;;;15.80;8.93;;;;;;;23.25;67.46;100859.91;4974779;28;20034;-76
2022/05/26 08:08:22;;;;;;;17.75;8.10;;;;;;;23.44;67.48;100861.97;4994582;28;20073;-77
2022/05/26 08:10:48;;;;;;;12.75;7.30;;;;;;;23.55;66.52;100858.66;4993145;28;20500;-76
2022/05/26 08:13:13;;;;;;;17.40;8.52;;;;;;;23.72;66.15;100865.50;4992706;28;20026;-77
2022/05/26 08:15:39;;;;;;;21.00;7.95;;;;;;;23.85;65.57;100868.28;4992514;28;20022;-77
2022/05/26 08:18:04;;;;;;;18.00;7.32;;;;;;;23.95;64.79;100861.56;4992556;28;20022;-76
2022/05/26 08:20:30;;;;;;;20.13;7.80;;;;;;;24.11;64.62;100859.34;4996576;28;20809;-76
2022/05/26 08:22:55;;;;;;;16.60;7.40;;;;;;;24.21;64.49;100864.44;4979286;28;20034;-77
2022/05/26 08:25:21;;;;;;;18.70;7.75;;;;;;;24.26;64.13;100861.91;4996245;28;20407;-77
2022/05/26 08:27:47;;;;;;;14.90;7.50;;;;;;;24.40;64.04;100862.78;4996763;28;20030;-77
2022/05/26 08:30:12;;;;;;;12.65;7.72;;;;;;;24.54;63.79;100865.34;4996534;28;20033;-76
2022/05/26 08:32:38;;;;;;;16.40;8.63;;;;;;;24.60;63.45;100861.75;4995797;28;20046;-77
2022/05/26 08:35:08;;;;;;;22.48;8.75;;;;;;;24.83;63.40;100870.47;4996133;28;20037;-76
2022/05/26 08:37:34;;;;;;;17.52;8.80;;;;;;;24.94;63.10;100862.63;4995575;28;20057;-77
2022/05/26 08:40:01;;;;;;;19.48;10.65;;;;;;;25.12;62.11;100862.81;4995880;28;20058;-77
2022/05/26 08:42:29;;;;;;;22.25;9.73;;;;;;;25.20;62.23;100862.59;4995745;28;20034;-77
2022/05/26 08:45:04;;;;;;;26.75;11.25;;;;;;;25.22;61.76;100868.75;4995524;28;20054;-76
2022/05/26 08:47:39;;;;;;;32.17;13.20;;;;;;;25.36;61.92;100859.38;4995746;28;20097;-77
2022/05/26 08:50:10;;;;;;;18.13;12.55;;;;;;;25.50;61.41;100861.09;4996153;28;20438;-77
2022/05/26 08:52:46;;;;;;;18.42;14.75;;;;;;;25.41;60.77;100852.16;4996431;28;20034;-77
2022/05/26 08:55:24;;;;;;;25.88;16.30;;;;;;;25.56;60.96;100851.13;4995838;28;20030;-77
2022/05/26 08:58:01;;;;;;;30.63;21.83;;;;;;;25.74;60.67;100852.13;4996226;28;20038;-76
2022/05/26 09:00:27;;;;;;;42.33;24.92;;;;;;;25.77;60.41;100851.69;4996003;28;20510;-77
2022/05/26 09:02:59;;;;;;;28.33;21.88;;;;;;;25.84;59.89;100855.22;4995995;28;20030;-76
2022/05/26 09:05:30;;;;;;;30.55;18.67;;;;;;;26.02;60.38;100854.53;4995311;28;20022;-77
2022/05/26 09:13:50;;;;;;;35.67;18.60;;;;;;;26.28;58.96;100843.38;4986938;28;20053;-76
2022/05/26 09:16:16;;;;;;;29.25;17.98;;;;;;;26.36;58.73;100840.34;4978169;28;20030;-76
2022/05/26 09:18:41;;;;;;;32.03;15.18;;;;;;;26.29;58.67;100834.03;4995360;28;20037;-76
2022/05/26 09:21:16;;;;;;;26.30;15.55;;;;;;;26.54;58.61;100847.88;4995386;28;20114;-77
2022/05/26 09:23:46;;;;;;;23.95;16.10;;;;;;;26.48;57.78;100848.75;4994883;28;20037;-76
2022/05/26 09:26:17;;;;;;;28.83;14.57;;;;;;;26.60;58.11;100838.69;4995830;28;20058;-76
2022/05/26 09:28:48;;;;;;;24.20;13.00;;;;;;;26.68;57.91;100852.19;4985561;28;20034;-76
2022/05/26 09:31:19;;;;;;;24.77;14.40;;;;;;;26.65;57.51;100849.03;4994536;28;20027;-76
2022/05/26 09:34:01;;;;;;;26.30;11.32;;;;;;;26.70;58.05;100844.53;4995238;28;20031;-78
2022/05/26 09:36:36;;;;;;;21.85;10.25;;;;;;;26.85;57.85;100858.88;4994406;28;20045;-77
2022/05/26 09:39:04;;;;;;;20.25;8.80;;;;;;;26.84;57.19;100851.69;4994018;28;20086;-77
2022/05/26 09:41:41;;;;;;;14.27;7.93;;;;;;;26.82;57.63;100859.31;4994562;28;20081;-76
2022/05/26 09:44:40;;;;;;;14.18;7.05;;;;;;;26.80;57.39;100846.81;4994816;28;20066;-77
2022/05/26 09:47:21;;;;;;;32.78;7.97;;;;;;;26.86;57.31;100846.78;4992853;28;20030;-77
2022/05/26 09:49:50;;;;;;;18.38;7.00;;;;;;;26.62;57.78;100860.53;4992699;28;20038;-77
2022/05/26 09:52:20;;;;;;;14.35;6.60;;;;;;;26.69;57.25;100851.16;5000110;28;20126;-78
2022/05/26 09:54:47;;;;;;;13.43;6.80;;;;;;;26.90;56.90;100852.69;4978316;28;20496;-77
2022/05/26 09:57:25;;;;;;;16.50;6.60;;;;;;;26.83;56.87;100836.19;4994350;28;20031;-76
2022/05/26 09:59:51;;;;;;;20.35;7.03;;;;;;;26.87;56.88;100847.63;4995504;28;20038;-77
2022/05/26 10:02:40;;;;;;;20.92;7.38;;;;;;;27.06;56.45;100854.03;4994897;28;20114;-78
2022/05/26 10:05:29;;;;;;;13.23;6.07;;;;;;;27.03;56.45;100845.13;4994747;28;20060;-77
2022/05/26 10:08:00;;;;;;;15.57;6.45;;;;;;;27.09;57.01;100848.06;4986490;28;20029;-77
2022/05/26 10:10:31;;;;;;;13.87;6.40;;;;;;;27.15;57.25;100838.88;4994617;28;20030;-77
2022/05/26 10:13:27;;;;;;;14.43;5.97;;;;;;;27.15;56.04;100855.44;4994372;28;20269;-77
2022/05/26 10:16:25;;;;;;;15.85;6.70;;;;;;;27.28;56.25;100844.22;4994105;28;20032;-77
2022/05/26 10:19:18;;;;;;;10.88;6.05;;;;;;;27.47;55.74;100844.06;4993917;28;20054;-77
2022/05/26 10:22:00;;;;;;;;;;;;;;;27.54;55.03;100844.00;4994867;28;20164;-77
2022/05/26 10:24:29;;;;;;;14.95;5.72;;;;;;;27.48;55.12;100839.38;4985776;28;19965;-77
2022/05/26 10:26:57;;;;;;;14.75;6.85;;;;;;;27.74;55.06;100828.00;4993696;28;20103;-78
2022/05/26 10:29:45;;;;;;;14.15;6.55;;;;;;;27.93;54.42;100826.91;4993864;28;20404;-78
2022/05/26 10:32:32;;;;;;;14.65;6.28;;;;;;;28.17;53.87;100822.31;4984183;28;20042;-77
2022/05/26 10:35:13;;;;;;;11.98;5.95;;;;;;;28.39;53.17;100819.88;4986322;28;20026;-77
2022/05/26 10:37:48;;;;;;;11.55;5.80;;;;;;;28.50;53.23;100816.31;4993789;28;20500;-78
2022/05/26 10:40:30;;;;;;;30.02;6.85;;;;;;;28.59;52.79;100818.47;4993905;28;20046;-76
2022/05/26 10:43:18;;;;;;;13.95;5.32;;;;;;;28.52;53.32;100811.38;4993154;28;20018;-77
2022/05/26 10:45:48;;;;;;;16.20;5.43;;;;;;;28.58;53.29;100811.25;4994572;28;20411;-76
2022/05/26 10:48:37;;;;;;;13.10;5.25;;;;;;;28.89;52.87;100812.91;4983906;28;20499;-78
2022/05/26 10:51:15;;;;;;;16.15;5.60;;;;;;;28.81;52.65;100823.47;4992577;28;20026;-74
2022/05/26 10:54:00;;;;;;;29.90;5.63;;;;;;;29.10;52.53;100823.38;4993830;28;20041;-77
2022/05/26 10:56:36;;;;;;;14.20;4.45;;;;;;;29.21;51.95;100829.13;4993618;28;20052;-75
2022/05/26 10:59:16;;;;;;;12.98;4.35;;;;;;;29.24;51.72;100828.66;4975825;28;20411;-75
2022/05/26 11:01:57;;;;;;;15.50;4.72;;;;;;;29.30;51.30;100822.16;4958019;28;20507;-79
2022/05/26 11:04:41;;;;;;;11.13;4.10;;;;;;;29.08;51.58;100828.28;4992739;28;20108;-75
2022/05/26 11:07:16;;;;;;;20.40;5.00;;;;;;;28.77;52.40;100817.59;4993847;28;20030;-78
2022/05/26 11:10:07;;;;;;;6.82;3.95;;;;;;;28.88;52.28;100813.13;4997162;28;20432;-80
2022/05/26 11:12:40;;;;;;;14.50;5.90;;;;;;;28.87;52.96;100820.59;4996789;28;20032;-78
2022/05/26 11:18:28;;;;;;;25.55;8.13;;;;;;;28.68;53.03;100827.31;4996152;28;20129;-78
2022/05/26 11:20:56;;;;;;;23.52;7.00;;;;;;;28.63;53.05;100832.69;4992937;28;20029;-76
2022/05/26 11:23:35;;;;;;;12.63;4.55;;;;;;;28.32;53.67;100814.44;4992556;28;20033;-77
2022/05/26 11:26:07;;;;;;;23.73;5.65;;;;;;;28.48;48.83;100819.28;4992609;28;20540;-77
2022/05/26 11:28:50;;;;;;;26.98;3.40;;;;;;;28.93;42.53;100804.91;4991713;28;20040;-77
2022/05/26 11:37:23;;;;;;;8.05;2.72;;;;;;;29.98;39.27;100800.91;4992299;28;20113;-77
2022/05/26 11:39:53;;;;;;;15.35;3.25;;;;;;;30.23;39.48;100795.84;4992843;28;20499;-76
2022/05/26 11:42:36;;;;;;;7.60;3.00;;;;;;;30.52;38.65;100798.63;4992553;28;20030;-76
2022/05/26 11:45:10;;;;;;;6.60;3.10;;;;;;;30.69;38.36;100800.31;4992255;28;20022;-77
2022/05/26 11:47:58;;;;;;;8.57;3.53;;;;;;;30.95;38.23;100809.06;4992443;28;20045;-77
2022/05/26 11:50:42;;;;;;;13.70;2.75;;;;;;;31.13;37.61;100790.16;4992253;28;20038;-77
2022/05/26 11:53:12;;;;;;;13.68;3.78;;;;;;;31.21;37.12;100800.84;4993082;28;20034;-77
2022/05/26 11:55:46;;;;;;;10.02;3.25;;;;;;;31.26;37.01;100797.28;4995867;28;20030;-78
2022/05/26 11:58:36;;;;;;;14.07;3.60;;;;;;;31.39;37.07;100798.88;4995577;28;20416;-77
2022/05/26 12:01:13;;;;;;;9.52;3.35;;;;;;;31.54;36.51;100796.31;4995441;28;20034;-78
2022/05/26 12:04:06;;;;;;;11.68;3.60;;;;;;;31.62;36.94;100784.75;4995644;28;20030;-77
2022/05/26 12:06:41;;;;;;;9.02;3.35;;;;;;;31.67;36.10;100795.94;4988466;28;20407;-77
2022/05/26 12:09:11;;;;;;;9.23;4.50;;;;;;;31.72;36.46;100793.19;4995372;28;20041;-77
2022/05/26 12:12:03;;;;;;;13.88;3.70;;;;;;;31.71;36.65;100797.09;4995565;28;20464;-77
2022/05/26 12:15:07;;;;;;;12.38;4.50;;;;;;;31.87;35.95;100789.75;4978440;28;20411;-77